sensor_id;sensor_type;location;lat;lon;timestamp;pressure;altitude;pressure_sealevel;temperature;humidity
85119;BME280;75469;47.654;10.494;2024-01-30T00:01:36;92899.28;;;1.06;61.13
85119;BME280;75469;47.654;10.494;2024-01-30T00:04:02;92899.28;;;1.06;61.51
85119;BME280;75469;47.654;10.494;2024-01-30T00:06:28;92898.50;;;1.06;61.59
85119;BME280;75469;47.654;10.494;2024-01-30T00:08:54;92893.72;;;1.13;60.99
85119;BME280;75469;47.654;10.494;2024-01-30T00:11:20;92897.56;;;1.21;60.40
85119;BME280;75469;47.654;10.494;2024-01-30T00:13:46;92896.00;;;1.20;60.76
85119;BME280;75469;47.654;10.494;2024-01-30T00:16:31;92893.00;;;1.07;61.23
85119;BME280;75469;47.654;10.494;2024-01-30T00:18:56;92904.09;;;0.94;61.62
85119;BME280;75469;47.654;10.494;2024-01-30T00:21:22;92898.16;;;0.88;61.99
85119;BME280;75469;47.654;10.494;2024-01-30T00:23:48;92909.16;;;0.80;62.66
85119;BME280;75469;47.654;10.494;2024-01-30T00:26:14;92903.88;;;0.61;63.31
85119;BME280;75469;47.654;10.494;2024-01-30T00:28:40;92903.50;;;0.73;62.88
85119;BME280;75469;47.654;10.494;2024-01-30T00:31:06;92907.41;;;0.76;62.27
85119;BME280;75469;47.654;10.494;2024-01-30T00:33:32;92905.59;;;1.00;61.14
85119;BME280;75469;47.654;10.494;2024-01-30T00:35:57;92905.09;;;0.98;60.91
85119;BME280;75469;47.654;10.494;2024-01-30T00:38:23;92901.41;;;1.23;59.94
85119;BME280;75469;47.654;10.494;2024-01-30T00:40:48;92903.72;;;1.06;60.90
85119;BME280;75469;47.654;10.494;2024-01-30T00:43:15;92907.06;;;0.82;61.88
85119;BME280;75469;47.654;10.494;2024-01-30T00:45:41;92907.41;;;0.76;62.07
85119;BME280;75469;47.654;10.494;2024-01-30T00:48:06;92903.00;;;0.71;62.53
85119;BME280;75469;47.654;10.494;2024-01-30T00:50:32;92907.66;;;0.74;62.04
85119;BME280;75469;47.654;10.494;2024-01-30T00:52:57;92899.31;;;0.77;62.04
85119;BME280;75469;47.654;10.494;2024-01-30T00:55:23;92903.63;;;0.87;61.65
85119;BME280;75469;47.654;10.494;2024-01-30T00:57:48;92897.22;;;0.79;61.70
85119;BME280;75469;47.654;10.494;2024-01-30T01:00:14;92902.63;;;0.83;61.42
85119;BME280;75469;47.654;10.494;2024-01-30T01:02:43;92906.53;;;0.85;61.32
85119;BME280;75469;47.654;10.494;2024-01-30T01:05:09;92910.66;;;0.86;61.88
85119;BME280;75469;47.654;10.494;2024-01-30T01:07:35;92909.13;;;0.85;61.61
85119;BME280;75469;47.654;10.494;2024-01-30T01:10:00;92909.69;;;0.82;61.53
85119;BME280;75469;47.654;10.494;2024-01-30T01:12:26;92903.19;;;0.80;61.65
85119;BME280;75469;47.654;10.494;2024-01-30T01:14:51;92911.78;;;0.80;61.27
85119;BME280;75469;47.654;10.494;2024-01-30T01:17:17;92912.50;;;0.86;60.66
85119;BME280;75469;47.654;10.494;2024-01-30T01:19:44;92908.78;;;0.92;60.70
85119;BME280;75469;47.654;10.494;2024-01-30T01:22:09;92917.13;;;0.94;60.59
85119;BME280;75469;47.654;10.494;2024-01-30T01:24:35;92909.56;;;0.93;60.85
85119;BME280;75469;47.654;10.494;2024-01-30T01:27:01;92919.53;;;0.85;61.14
85119;BME280;75469;47.654;10.494;2024-01-30T01:29:26;92914.84;;;0.87;60.99
85119;BME280;75469;47.654;10.494;2024-01-30T01:31:55;92917.34;;;0.98;60.44
85119;BME280;75469;47.654;10.494;2024-01-30T01:34:22;92913.88;;;1.02;60.41
85119;BME280;75469;47.654;10.494;2024-01-30T01:36:49;92913.28;;;1.10;60.08
85119;BME280;75469;47.654;10.494;2024-01-30T01:39:15;92911.19;;;1.36;58.81
85119;BME280;75469;47.654;10.494;2024-01-30T01:41:41;92906.75;;;1.37;58.63
85119;BME280;75469;47.654;10.494;2024-01-30T01:44:07;92906.31;;;1.30;59.27
85119;BME280;75469;47.654;10.494;2024-01-30T01:46:34;92920.00;;;1.17;59.66
85119;BME280;75469;47.654;10.494;2024-01-30T01:49:05;92914.69;;;1.03;60.68
85119;BME280;75469;47.654;10.494;2024-01-30T01:51:31;92908.25;;;1.19;59.57
85119;BME280;75469;47.654;10.494;2024-01-30T01:54:01;92910.84;;;1.43;58.79
85119;BME280;75469;47.654;10.494;2024-01-30T01:56:27;92912.16;;;1.41;58.40
85119;BME280;75469;47.654;10.494;2024-01-30T01:58:55;92910.47;;;1.31;58.90
85119;BME280;75469;47.654;10.494;2024-01-30T02:01:25;92909.53;;;1.22;59.55
85119;BME280;75469;47.654;10.494;2024-01-30T02:03:51;92908.59;;;1.12;59.91
85119;BME280;75469;47.654;10.494;2024-01-30T02:06:17;92915.50;;;0.98;60.67
85119;BME280;75469;47.654;10.494;2024-01-30T02:08:43;92911.41;;;0.92;60.75
85119;BME280;75469;47.654;10.494;2024-01-30T02:11:09;92906.94;;;0.68;61.88
85119;BME280;75469;47.654;10.494;2024-01-30T02:13:36;92921.81;;;0.63;61.82
85119;BME280;75469;47.654;10.494;2024-01-30T02:16:01;92911.59;;;0.72;61.61
85119;BME280;75469;47.654;10.494;2024-01-30T02:18:27;92902.69;;;0.78;61.46
85119;BME280;75469;47.654;10.494;2024-01-30T02:20:54;92904.28;;;0.74;61.65
85119;BME280;75469;47.654;10.494;2024-01-30T02:23:24;92906.88;;;0.74;61.54
85119;BME280;75469;47.654;10.494;2024-01-30T02:25:54;92908.13;;;0.81;61.05
85119;BME280;75469;47.654;10.494;2024-01-30T02:28:20;92910.75;;;0.81;61.43
85119;BME280;75469;47.654;10.494;2024-01-30T02:30:46;92912.09;;;0.74;61.82
85119;BME280;75469;47.654;10.494;2024-01-30T02:33:13;92909.38;;;0.84;61.01
85119;BME280;75469;47.654;10.494;2024-01-30T02:35:39;92906.53;;;0.85;60.78
85119;BME280;75469;47.654;10.494;2024-01-30T02:38:05;92907.66;;;0.74;61.36
85119;BME280;75469;47.654;10.494;2024-01-30T02:40:31;92908.38;;;0.51;62.62
85119;BME280;75469;47.654;10.494;2024-01-30T02:42:59;92908.38;;;0.51;62.59
85119;BME280;75469;47.654;10.494;2024-01-30T02:45:26;92904.34;;;0.39;63.15
85119;BME280;75469;47.654;10.494;2024-01-30T02:47:52;92907.22;;;0.33;63.33
85119;BME280;75469;47.654;10.494;2024-01-30T02:50:18;92907.97;;;0.38;62.83
85119;BME280;75469;47.654;10.494;2024-01-30T02:52:45;92909.56;;;0.34;63.13
85119;BME280;75469;47.654;10.494;2024-01-30T02:55:11;92908.28;;;0.32;63.21
85119;BME280;75469;47.654;10.494;2024-01-30T02:57:38;92907.78;;;0.30;63.39
85119;BME280;75469;47.654;10.494;2024-01-30T03:00:05;92908.84;;;0.29;63.43
85119;BME280;75469;47.654;10.494;2024-01-30T03:02:32;92898.75;;;0.22;63.62
85119;BME280;75469;47.654;10.494;2024-01-30T03:04:59;92900.28;;;0.23;63.45
85119;BME280;75469;47.654;10.494;2024-01-30T03:07:25;92897.63;;;0.33;63.13
85119;BME280;75469;47.654;10.494;2024-01-30T03:09:50;92901.47;;;0.36;62.96
85119;BME280;75469;47.654;10.494;2024-01-30T03:12:16;92895.38;;;0.51;62.60
85119;BME280;75469;47.654;10.494;2024-01-30T03:14:42;92893.28;;;0.53;62.27
85119;BME280;75469;47.654;10.494;2024-01-30T03:17:07;92898.03;;;0.45;62.83
85119;BME280;75469;47.654;10.494;2024-01-30T03:19:33;92900.09;;;0.49;62.37
85119;BME280;75469;47.654;10.494;2024-01-30T03:22:00;92894.09;;;0.48;62.59
85119;BME280;75469;47.654;10.494;2024-01-30T03:24:25;92894.59;;;0.50;62.58
85119;BME280;75469;47.654;10.494;2024-01-30T03:26:51;92893.28;;;0.53;62.18
85119;BME280;75469;47.654;10.494;2024-01-30T03:29:17;92888.44;;;0.70;61.74
85119;BME280;75469;47.654;10.494;2024-01-30T03:31:43;92894.66;;;0.74;61.53
85119;BME280;75469;47.654;10.494;2024-01-30T03:34:09;92894.97;;;0.67;61.79
85119;BME280;75469;47.654;10.494;2024-01-30T03:36:36;92894.97;;;0.67;61.74
85119;BME280;75469;47.654;10.494;2024-01-30T03:39:01;92891.28;;;0.74;61.49
85119;BME280;75469;47.654;10.494;2024-01-30T03:41:27;92891.88;;;0.89;60.80
85119;BME280;75469;47.654;10.494;2024-01-30T03:43:53;92891.50;;;1.01;60.11
85119;BME280;75469;47.654;10.494;2024-01-30T03:46:18;92888.19;;;0.96;60.63
85119;BME280;75469;47.654;10.494;2024-01-30T03:48:45;92886.78;;;0.79;61.39
85119;BME280;75469;47.654;10.494;2024-01-30T03:51:11;92881.91;;;0.73;61.43
85119;BME280;75469;47.654;10.494;2024-01-30T03:53:44;92887.91;;;0.73;61.42
85119;BME280;75469;47.654;10.494;2024-01-30T03:56:11;92887.59;;;0.75;61.27
85119;BME280;75469;47.654;10.494;2024-01-30T03:58:38;92890.53;;;0.68;62.02
85119;BME280;75469;47.654;10.494;2024-01-30T04:01:03;92879.94;;;0.59;62.25
85119;BME280;75469;47.654;10.494;2024-01-30T04:03:29;92887.53;;;0.56;62.22
85119;BME280;75469;47.654;10.494;2024-01-30T04:05:54;92881.00;;;0.58;61.92
85119;BME280;75469;47.654;10.494;2024-01-30T04:08:20;92884.88;;;0.61;61.86
85119;BME280;75469;47.654;10.494;2024-01-30T04:10:46;92879.69;;;0.61;61.79
85119;BME280;75469;47.654;10.494;2024-01-30T04:13:12;92883.09;;;0.56;62.35
85119;BME280;75469;47.654;10.494;2024-01-30T04:15:39;92880.03;;;0.49;62.52
85119;BME280;75469;47.654;10.494;2024-01-30T04:18:04;92883.94;;;0.52;62.65
85119;BME280;75469;47.654;10.494;2024-01-30T04:20:30;92887.50;;;0.61;62.14
85119;BME280;75469;47.654;10.494;2024-01-30T04:22:56;92881.00;;;0.58;62.26
85119;BME280;75469;47.654;10.494;2024-01-30T04:25:21;92883.19;;;0.46;62.60
85119;BME280;75469;47.654;10.494;2024-01-30T04:27:47;92889.75;;;0.38;62.92
85119;BME280;75469;47.654;10.494;2024-01-30T04:30:13;92884.06;;;0.36;62.96
85119;BME280;75469;47.654;10.494;2024-01-30T04:32:39;92885.50;;;0.48;62.83
85119;BME280;75469;47.654;10.494;2024-01-30T04:35:05;92887.34;;;0.47;62.76
85119;BME280;75469;47.654;10.494;2024-01-30T04:37:30;92888.75;;;0.34;63.23
85119;BME280;75469;47.654;10.494;2024-01-30T04:39:56;92881.75;;;0.30;63.45
85119;BME280;75469;47.654;10.494;2024-01-30T04:42:22;92886.47;;;0.28;63.43
85119;BME280;75469;47.654;10.494;2024-01-30T04:44:48;92884.69;;;0.23;63.66
85119;BME280;75469;47.654;10.494;2024-01-30T04:47:13;92888.59;;;0.20;63.62
85119;BME280;75469;47.654;10.494;2024-01-30T04:49:39;92889.19;;;0.12;64.16
85119;BME280;75469;47.654;10.494;2024-01-30T04:52:06;92892.81;;;0.16;63.95
85119;BME280;75469;47.654;10.494;2024-01-30T04:54:32;92895.06;;;0.28;63.24
85119;BME280;75469;47.654;10.494;2024-01-30T04:56:58;92891.25;;;0.15;64.03
85119;BME280;75469;47.654;10.494;2024-01-30T04:59:24;92894.69;;;0.06;64.24
85119;BME280;75469;47.654;10.494;2024-01-30T05:01:50;92896.59;;;-0.05;64.88
85119;BME280;75469;47.654;10.494;2024-01-30T05:04:16;92894.19;;;0.04;64.68
85119;BME280;75469;47.654;10.494;2024-01-30T05:06:41;92886.59;;;0.12;64.27
85119;BME280;75469;47.654;10.494;2024-01-30T05:09:08;92892.38;;;0.04;64.53
85119;BME280;75469;47.654;10.494;2024-01-30T05:11:41;92897.25;;;0.11;64.39
85119;BME280;75469;47.654;10.494;2024-01-30T05:14:07;92901.88;;;0.19;63.64
85119;BME280;75469;47.654;10.494;2024-01-30T05:16:32;92899.50;;;0.22;63.69
85119;BME280;75469;47.654;10.494;2024-01-30T05:18:59;92906.91;;;0.10;64.40
85119;BME280;75469;47.654;10.494;2024-01-30T05:21:24;92901.16;;;0.13;64.37
85119;BME280;75469;47.654;10.494;2024-01-30T05:23:50;92900.16;;;0.09;64.10
85119;BME280;75469;47.654;10.494;2024-01-30T05:26:16;92902.84;;;0.28;63.72
85119;BME280;75469;47.654;10.494;2024-01-30T05:28:41;92891.94;;;0.26;63.36
85119;BME280;75469;47.654;10.494;2024-01-30T05:31:07;92897.84;;;0.37;63.21
85119;BME280;75469;47.654;10.494;2024-01-30T05:33:33;92894.72;;;0.35;63.36
85119;BME280;75469;47.654;10.494;2024-01-30T05:35:59;92901.59;;;0.20;63.88
85119;BME280;75469;47.654;10.494;2024-01-30T05:38:24;92894.94;;;0.09;64.31
85119;BME280;75469;47.654;10.494;2024-01-30T05:40:50;92906.75;;;0.31;63.58
85119;BME280;75469;47.654;10.494;2024-01-30T05:43:15;92903.31;;;0.35;63.56
85119;BME280;75469;47.654;10.494;2024-01-30T05:45:41;92906.09;;;0.44;63.11
85119;BME280;75469;47.654;10.494;2024-01-30T05:48:06;92903.91;;;0.56;63.47
85119;BME280;75469;47.654;10.494;2024-01-30T05:50:32;92906.84;;;0.50;62.99
85119;BME280;75469;47.654;10.494;2024-01-30T05:52:57;92911.06;;;0.45;63.43
85119;BME280;75469;47.654;10.494;2024-01-30T05:55:23;92911.75;;;0.22;64.25
85119;BME280;75469;47.654;10.494;2024-01-30T05:57:48;92910.47;;;0.19;64.56
85119;BME280;75469;47.654;10.494;2024-01-30T06:00:14;92914.84;;;0.24;64.57
85119;BME280;75469;47.654;10.494;2024-01-30T06:02:40;92910.44;;;0.25;64.49
85119;BME280;75469;47.654;10.494;2024-01-30T06:05:06;92914.84;;;0.24;64.49
85119;BME280;75469;47.654;10.494;2024-01-30T06:07:32;92916.09;;;0.32;64.29
85119;BME280;75469;47.654;10.494;2024-01-30T06:09:57;92916.25;;;0.45;63.94
85119;BME280;75469;47.654;10.494;2024-01-30T06:12:23;92912.84;;;0.45;63.70
85119;BME280;75469;47.654;10.494;2024-01-30T06:14:48;92913.69;;;0.40;63.72
85119;BME280;75469;47.654;10.494;2024-01-30T06:17:14;92909.97;;;0.52;63.37
85119;BME280;75469;47.654;10.494;2024-01-30T06:19:40;92904.75;;;0.52;63.50
85119;BME280;75469;47.654;10.494;2024-01-30T06:22:07;92913.31;;;0.57;63.61
85119;BME280;75469;47.654;10.494;2024-01-30T06:24:33;92907.94;;;0.43;63.96
85119;BME280;75469;47.654;10.494;2024-01-30T06:27:00;92914.25;;;0.37;64.24
85119;BME280;75469;47.654;10.494;2024-01-30T06:29:26;92906.78;;;0.26;64.76
85119;BME280;75469;47.654;10.494;2024-01-30T06:31:52;92908.81;;;0.34;64.72
85119;BME280;75469;47.654;10.494;2024-01-30T06:34:18;92906.66;;;0.41;64.13
85119;BME280;75469;47.654;10.494;2024-01-30T06:36:44;92911.41;;;0.34;64.42
85119;BME280;75469;47.654;10.494;2024-01-30T06:39:10;92912.75;;;0.26;64.62
85119;BME280;75469;47.654;10.494;2024-01-30T06:41:36;92910.31;;;0.40;64.32
85119;BME280;75469;47.654;10.494;2024-01-30T06:44:02;92908.03;;;0.62;63.27
85119;BME280;75469;47.654;10.494;2024-01-30T06:46:30;92906.25;;;0.58;63.59
85119;BME280;75469;47.654;10.494;2024-01-30T06:48:55;92907.84;;;0.54;63.71
85119;BME280;75469;47.654;10.494;2024-01-30T06:51:21;92912.38;;;0.43;64.35
85119;BME280;75469;47.654;10.494;2024-01-30T06:53:46;92914.63;;;0.55;64.18
85119;BME280;75469;47.654;10.494;2024-01-30T06:56:13;92914.06;;;0.58;63.71
85119;BME280;75469;47.654;10.494;2024-01-30T06:58:39;92916.91;;;0.61;63.81
85119;BME280;75469;47.654;10.494;2024-01-30T07:01:06;92913.19;;;0.67;63.63
85119;BME280;75469;47.654;10.494;2024-01-30T07:03:33;92912.28;;;0.82;63.11
85119;BME280;75469;47.654;10.494;2024-01-30T07:05:58;92915.47;;;1.70;60.61
85119;BME280;75469;47.654;10.494;2024-01-30T07:08:24;92915.28;;;3.03;56.57
85119;BME280;75469;47.654;10.494;2024-01-30T07:10:49;92912.81;;;3.89;53.54
85119;BME280;75469;47.654;10.494;2024-01-30T07:13:15;92910.25;;;4.56;51.10
85119;BME280;75469;47.654;10.494;2024-01-30T07:15:42;92913.13;;;5.31;49.31
85119;BME280;75469;47.654;10.494;2024-01-30T07:18:10;92907.88;;;5.80;48.14
85119;BME280;75469;47.654;10.494;2024-01-30T07:20:36;92908.56;;;6.55;45.91
85119;BME280;75469;47.654;10.494;2024-01-30T07:23:02;92916.56;;;6.93;45.12
85119;BME280;75469;47.654;10.494;2024-01-30T07:25:28;92908.06;;;8.23;41.82
85119;BME280;75469;47.654;10.494;2024-01-30T07:27:55;92909.94;;;8.23;42.52
85119;BME280;75469;47.654;10.494;2024-01-30T07:30:21;92906.84;;;8.63;41.07
85119;BME280;75469;47.654;10.494;2024-01-30T07:32:47;92906.84;;;8.63;41.46
85119;BME280;75469;47.654;10.494;2024-01-30T07:35:13;92906.13;;;9.90;39.67
85119;BME280;75469;47.654;10.494;2024-01-30T07:37:39;92914.47;;;9.68;39.03
85119;BME280;75469;47.654;10.494;2024-01-30T07:40:05;92915.69;;;9.82;38.34
85119;BME280;75469;47.654;10.494;2024-01-30T07:42:32;92912.34;;;10.75;37.60
85119;BME280;75469;47.654;10.494;2024-01-30T07:44:58;92914.03;;;11.71;36.04
85119;BME280;75469;47.654;10.494;2024-01-30T07:47:24;92915.00;;;10.75;38.74
85119;BME280;75469;47.654;10.494;2024-01-30T07:49:51;92923.31;;;11.33;37.88
85119;BME280;75469;47.654;10.494;2024-01-30T07:52:17;92918.38;;;11.32;37.75
85119;BME280;75469;47.654;10.494;2024-01-30T07:54:44;92915.03;;;11.35;37.83
85119;BME280;75469;47.654;10.494;2024-01-30T07:57:10;92924.97;;;11.54;36.94
85119;BME280;75469;47.654;10.494;2024-01-30T07:59:35;92921.59;;;12.20;37.00
85119;BME280;75469;47.654;10.494;2024-01-30T08:02:01;92919.84;;;13.64;33.31
85119;BME280;75469;47.654;10.494;2024-01-30T08:04:26;92927.13;;;13.90;33.08
85119;BME280;75469;47.654;10.494;2024-01-30T08:06:52;92924.75;;;13.19;35.01
85119;BME280;75469;47.654;10.494;2024-01-30T08:09:18;92923.53;;;13.79;34.54
85119;BME280;75469;47.654;10.494;2024-01-30T08:11:45;92922.94;;;14.99;33.56
85119;BME280;75469;47.654;10.494;2024-01-30T08:14:10;92926.16;;;15.15;31.47
85119;BME280;75469;47.654;10.494;2024-01-30T08:16:37;92928.06;;;14.84;31.21
85119;BME280;75469;47.654;10.494;2024-01-30T08:19:03;92929.09;;;14.76;31.77
85119;BME280;75469;47.654;10.494;2024-01-30T08:21:29;92930.47;;;14.93;33.99
85119;BME280;75469;47.654;10.494;2024-01-30T08:23:54;92934.06;;;14.48;33.12
85119;BME280;75469;47.654;10.494;2024-01-30T08:26:20;92920.13;;;15.22;32.32
85119;BME280;75469;47.654;10.494;2024-01-30T08:28:46;92926.56;;;15.95;31.24
85119;BME280;75469;47.654;10.494;2024-01-30T08:31:12;92930.97;;;16.25;30.45
85119;BME280;75469;47.654;10.494;2024-01-30T08:33:38;92920.38;;;16.39;30.70
85119;BME280;75469;47.654;10.494;2024-01-30T08:36:04;92926.13;;;16.41;29.86
85119;BME280;75469;47.654;10.494;2024-01-30T08:38:29;92928.38;;;17.05;29.89
85119;BME280;75469;47.654;10.494;2024-01-30T08:40:56;92925.78;;;17.23;29.79
85119;BME280;75469;47.654;10.494;2024-01-30T08:43:22;92925.09;;;17.58;30.14
85119;BME280;75469;47.654;10.494;2024-01-30T08:45:48;92925.50;;;17.57;27.89
85119;BME280;75469;47.654;10.494;2024-01-30T08:48:15;92933.59;;;18.07;29.28
85119;BME280;75469;47.654;10.494;2024-01-30T08:50:41;92928.97;;;18.40;28.73
85119;BME280;75469;47.654;10.494;2024-01-30T08:53:07;92926.94;;;19.08;26.82
85119;BME280;75469;47.654;10.494;2024-01-30T08:55:33;92933.53;;;18.61;27.98
85119;BME280;75469;47.654;10.494;2024-01-30T08:57:58;92924.78;;;18.24;28.97
85119;BME280;75469;47.654;10.494;2024-01-30T09:00:24;92933.19;;;18.48;28.94
85119;BME280;75469;47.654;10.494;2024-01-30T09:02:50;92935.06;;;18.87;28.73
85119;BME280;75469;47.654;10.494;2024-01-30T09:05:16;92926.72;;;17.85;28.12
85119;BME280;75469;47.654;10.494;2024-01-30T09:07:44;92933.22;;;18.16;28.83
85119;BME280;75469;47.654;10.494;2024-01-30T09:10:09;92937.00;;;18.43;28.88
85119;BME280;75469;47.654;10.494;2024-01-30T09:12:35;92935.88;;;18.12;28.75
85119;BME280;75469;47.654;10.494;2024-01-30T09:15:01;92933.94;;;18.38;27.96
85119;BME280;75469;47.654;10.494;2024-01-30T09:17:27;92943.06;;;18.90;28.06
85119;BME280;75469;47.654;10.494;2024-01-30T09:19:53;92936.47;;;19.20;28.68
85119;BME280;75469;47.654;10.494;2024-01-30T09:22:18;92946.56;;;18.55;28.86
85119;BME280;75469;47.654;10.494;2024-01-30T09:24:45;92937.03;;;18.15;29.43
85119;BME280;75469;47.654;10.494;2024-01-30T09:27:13;92933.16;;;18.69;28.16
85119;BME280;75469;47.654;10.494;2024-01-30T09:29:38;92932.44;;;18.01;27.60
85119;BME280;75469;47.654;10.494;2024-01-30T09:32:05;92929.78;;;17.94;28.10
85119;BME280;75469;47.654;10.494;2024-01-30T09:34:33;92934.72;;;17.95;29.48
85119;BME280;75469;47.654;10.494;2024-01-30T09:36:59;92937.00;;;17.75;31.50
85119;BME280;75469;47.654;10.494;2024-01-30T09:39:27;92940.00;;;17.59;28.42
85119;BME280;75469;47.654;10.494;2024-01-30T09:42:16;92934.94;;;17.19;28.24
85119;BME280;75469;47.654;10.494;2024-01-30T09:44:44;92931.13;;;17.27;29.12
85119;BME280;75469;47.654;10.494;2024-01-30T09:47:10;92935.41;;;17.46;29.14
85119;BME280;75469;47.654;10.494;2024-01-30T09:49:36;92937.44;;;18.20;28.94
85119;BME280;75469;47.654;10.494;2024-01-30T09:52:05;92936.25;;;17.89;30.25
85119;BME280;75469;47.654;10.494;2024-01-30T09:54:31;92942.91;;;15.90;32.54
85119;BME280;75469;47.654;10.494;2024-01-30T09:56:57;92931.53;;;15.56;35.27
85119;BME280;75469;47.654;10.494;2024-01-30T09:59:23;92946.66;;;15.45;35.38
85119;BME280;75469;47.654;10.494;2024-01-30T10:01:50;92944.72;;;15.08;36.13
85119;BME280;75469;47.654;10.494;2024-01-30T10:04:16;92949.19;;;15.00;34.18
85119;BME280;75469;47.654;10.494;2024-01-30T10:06:42;92947.06;;;15.13;34.45
85119;BME280;75469;47.654;10.494;2024-01-30T10:09:07;92946.63;;;15.07;34.30
85119;BME280;75469;47.654;10.494;2024-01-30T10:11:35;92951.28;;;15.14;34.53
85119;BME280;75469;47.654;10.494;2024-01-30T10:14:01;92951.38;;;14.38;33.98
85119;BME280;75469;47.654;10.494;2024-01-30T10:16:27;92940.63;;;14.04;35.38
85119;BME280;75469;47.654;10.494;2024-01-30T10:18:53;92943.22;;;14.50;35.82
85119;BME280;75469;47.654;10.494;2024-01-30T10:21:18;92942.13;;;14.28;33.28
85119;BME280;75469;47.654;10.494;2024-01-30T10:23:44;92940.81;;;14.41;35.82
85119;BME280;75469;47.654;10.494;2024-01-30T10:26:12;92936.50;;;14.07;35.01
85119;BME280;75469;47.654;10.494;2024-01-30T10:28:38;92935.06;;;14.13;35.69
85119;BME280;75469;47.654;10.494;2024-01-30T10:31:03;92929.66;;;14.06;35.48
85119;BME280;75469;47.654;10.494;2024-01-30T10:33:30;92926.47;;;13.97;35.57
85119;BME280;75469;47.654;10.494;2024-01-30T10:36:04;92928.88;;;14.05;36.17
85119;BME280;75469;47.654;10.494;2024-01-30T10:38:31;92922.03;;;13.58;34.50
85119;BME280;75469;47.654;10.494;2024-01-30T10:40:58;92917.72;;;13.27;34.92
85119;BME280;75469;47.654;10.494;2024-01-30T10:43:31;92921.41;;;13.03;34.78
85119;BME280;75469;47.654;10.494;2024-01-30T10:46:20;92920.22;;;13.00;36.54
85119;BME280;75469;47.654;10.494;2024-01-30T10:48:56;92910.38;;;13.01;36.78
85119;BME280;75469;47.654;10.494;2024-01-30T10:51:23;92906.03;;;13.12;37.26
85119;BME280;75469;47.654;10.494;2024-01-30T10:53:50;92904.38;;;12.85;36.62
85119;BME280;75469;47.654;10.494;2024-01-30T10:56:16;92902.81;;;12.84;35.71
85119;BME280;75469;47.654;10.494;2024-01-30T10:58:42;92910.50;;;12.89;37.78
85119;BME280;75469;47.654;10.494;2024-01-30T11:01:08;92900.31;;;12.91;37.72
85119;BME280;75469;47.654;10.494;2024-01-30T11:03:34;92901.56;;;12.77;37.96
85119;BME280;75469;47.654;10.494;2024-01-30T11:06:02;92901.03;;;12.88;37.43
85119;BME280;75469;47.654;10.494;2024-01-30T11:08:28;92889.13;;;12.81;36.60
85119;BME280;75469;47.654;10.494;2024-01-30T11:10:57;92889.91;;;12.82;38.78
85119;BME280;75469;47.654;10.494;2024-01-30T11:13:30;92893.28;;;12.79;37.79
85119;BME280;75469;47.654;10.494;2024-01-30T11:16:03;92895.63;;;12.84;37.42
85119;BME280;75469;47.654;10.494;2024-01-30T11:18:31;92892.19;;;12.84;38.39
85119;BME280;75469;47.654;10.494;2024-01-30T11:20:57;92889.53;;;13.03;37.55
85119;BME280;75469;47.654;10.494;2024-01-30T11:23:23;92890.75;;;12.86;38.19
85119;BME280;75469;47.654;10.494;2024-01-30T11:25:52;92896.81;;;13.06;37.22
85119;BME280;75469;47.654;10.494;2024-01-30T11:28:18;92891.72;;;12.97;37.89
85119;BME280;75469;47.654;10.494;2024-01-30T11:30:44;92887.50;;;13.16;38.68
85119;BME280;75469;47.654;10.494;2024-01-30T11:33:14;92882.94;;;13.36;39.23
85119;BME280;75469;47.654;10.494;2024-01-30T11:35:42;92894.44;;;13.43;39.77
85119;BME280;75469;47.654;10.494;2024-01-30T11:38:09;92885.31;;;13.64;37.74
85119;BME280;75469;47.654;10.494;2024-01-30T11:40:38;92889.19;;;13.70;37.07
85119;BME280;75469;47.654;10.494;2024-01-30T11:43:05;92887.91;;;13.60;36.91
85119;BME280;75469;47.654;10.494;2024-01-30T11:45:33;92890.09;;;13.55;35.94
85119;BME280;75469;47.654;10.494;2024-01-30T11:47:59;92877.03;;;13.46;36.14
85119;BME280;75469;47.654;10.494;2024-01-30T11:50:26;92880.69;;;13.38;35.90
85119;BME280;75469;47.654;10.494;2024-01-30T11:52:54;92884.91;;;13.19;36.38
85119;BME280;75469;47.654;10.494;2024-01-30T11:55:21;92883.72;;;13.17;36.13
85119;BME280;75469;47.654;10.494;2024-01-30T11:57:46;92879.41;;;13.09;35.46
85119;BME280;75469;47.654;10.494;2024-01-30T12:00:15;92868.38;;;12.87;36.29
85119;BME280;75469;47.654;10.494;2024-01-30T12:02:42;92880.03;;;12.63;37.37
85119;BME280;75469;47.654;10.494;2024-01-30T12:05:08;92885.84;;;12.69;39.05
85119;BME280;75469;47.654;10.494;2024-01-30T12:07:35;92879.97;;;12.59;37.74
85119;BME280;75469;47.654;10.494;2024-01-30T12:10:00;92870.75;;;12.34;38.09
85119;BME280;75469;47.654;10.494;2024-01-30T12:12:27;92872.75;;;12.21;39.50
85119;BME280;75469;47.654;10.494;2024-01-30T12:14:53;92870.41;;;12.35;39.35
85119;BME280;75469;47.654;10.494;2024-01-30T12:17:37;92868.75;;;12.11;40.06
85119;BME280;75469;47.654;10.494;2024-01-30T12:20:12;92875.63;;;12.51;39.78
85119;BME280;75469;47.654;10.494;2024-01-30T12:22:47;92866.31;;;12.57;39.79
85119;BME280;75469;47.654;10.494;2024-01-30T12:25:15;92870.97;;;12.64;39.46
85119;BME280;75469;47.654;10.494;2024-01-30T12:27:48;92870.19;;;12.44;39.19
85119;BME280;75469;47.654;10.494;2024-01-30T12:30:18;92863.19;;;12.36;38.04
85119;BME280;75469;47.654;10.494;2024-01-30T12:32:46;92866.28;;;12.03;38.99
85119;BME280;75469;47.654;10.494;2024-01-30T12:35:18;92862.13;;;12.02;37.88
85119;BME280;75469;47.654;10.494;2024-01-30T12:37:45;92863.75;;;11.90;39.14
85119;BME280;75469;47.654;10.494;2024-01-30T12:40:12;92863.50;;;11.80;39.52
85119;BME280;75469;47.654;10.494;2024-01-30T12:42:43;92866.47;;;11.78;39.01
85119;BME280;75469;47.654;10.494;2024-01-30T12:45:11;92867.16;;;11.75;39.62
85119;BME280;75469;47.654;10.494;2024-01-30T12:47:38;92866.84;;;11.77;39.37
85119;BME280;75469;47.654;10.494;2024-01-30T12:50:04;92860.44;;;11.62;39.47
85119;BME280;75469;47.654;10.494;2024-01-30T12:52:30;92861.97;;;11.47;40.13